Ageda, Japón

12:32 PM JST en Abril 27, 2018 (GMT +0900)
Okinawa Shi | | Change Station

Alt 236 ft 26.33 °N, 127.81 °E | Updated 7 minutes ago

Clear
Despejado
76.3 ° F
Sensación térmica 78 ° F
N
6.2
Viento Variable Viento desde NNO
Gusts 11.8 mph

Hoy
Alta -- | Baja -- ° F
--% Posibilidad de precipitaciones
Ayer
Alta -- | Baja -- ° F
Precip. -- pul
Presión 30.03 pul
Visibilidad 10.0 Millas
Nubes Despejado
Índice de calor 78 ° F
Punto de rocío 62 ° F
Humedad 61%
Precipitaciones 0.00 pul
Espesor de la nieve No disponible.
5:54 AM 6:58 PM
Gibosa creciente, 91% visible
METAR RODN 270256Z AUTO 31010KT 10SM CLR 24/16 A3001 RMK AO2 SLP169 T02420162 50004 $
Presión 30.03 pul
Visibilidad 10.0 Millas
Nubes Despejado
Índice de calor 78 ° F
Punto de rocío 62 ° F
Humedad 61%
Precipitaciones 0.00 pul
Espesor de la nieve No disponible.
5:54 AM 6:58 PM
Gibosa creciente, 91% visible
METAR RODN 270256Z AUTO 31010KT 10SM CLR 24/16 A3001 RMK AO2 SLP169 T02420162 50004 $

Get Severe Weather Alerts

Thanks for signing up!

Be on the lookout for a verification email in your inbox.

You'll start receiving the daily forecast at 6 AM.

×

10-Day Weather Forecast

No radar image for this location.
×

Almanac

Astronomía

Apr. 27, 2018 Salida Puesta
Hora real
Crepúsculo civil
Crepúsculo náutico
Crepúsculo astronómico
Luna
Horas de luz
Horas de luz
Tomorrow will be .
, % of the Moon is Illuminated

Extremos de hoy

Máximos del país Bajas del país

Community

WunderPhotos

Category 6

Welcome to Category 6. This is the collective home for Weather Underground's featured writeups by Dr. Jeff Masters (right), Bob Henson (left), Chris Burt, and other regular contributors.

Nearby

Calidad del aire

  Calidad del aire Índice AQ Contaminante
Not available.

Grosos de nieve

Estación Profundido Altura

Actividad de terremotos

Ciudad Distance Mag. Tiempo y dato
Magnitud mínima muestra es 2,5.

Temperaturas de aguas costeras

Lugar Temperatura

Stations

Estaciones meteorológicas cercanas

Ubicación de la estación Temp. Vientos helados Punto de rocío Humedad Viento Precip. Alt Actualizado Tipo